sensor_id;sensor_type;location;lat;lon;timestamp;pressure;altitude;pressure_sealevel;temperature;humidity
43436;BME280;36399;51.444;-2.018;2022-12-18T00:01:44;101167.66;;;-0.93;100.00
43436;BME280;36399;51.444;-2.018;2022-12-18T00:04:23;101171.06;;;-0.81;100.00
43436;BME280;36399;51.444;-2.018;2022-12-18T00:06:49;101148.75;;;-0.80;100.00
43436;BME280;36399;51.444;-2.018;2022-12-18T00:09:15;101144.22;;;-0.71;100.00
43436;BME280;36399;51.444;-2.018;2022-12-18T00:11:41;101150.50;;;-0.68;100.00
43436;BME280;36399;51.444;-2.018;2022-12-18T00:14:07;101148.28;;;-0.75;100.00
43436;BME280;36399;51.444;-2.018;2022-12-18T00:16:33;101139.75;;;-0.74;100.00
43436;BME280;36399;51.444;-2.018;2022-12-18T00:19:02;101147.88;;;-0.81;100.00
43436;BME280;36399;51.444;-2.018;2022-12-18T00:21:28;101136.94;;;-0.90;100.00
43436;BME280;36399;51.444;-2.018;2022-12-18T00:23:54;101132.47;;;-1.04;100.00
43436;BME280;36399;51.444;-2.018;2022-12-18T00:26:22;101135.41;;;-1.11;100.00
43436;BME280;36399;51.444;-2.018;2022-12-18T00:28:48;101126.09;;;-1.09;100.00
43436;BME280;36399;51.444;-2.018;2022-12-18T00:31:15;101123.31;;;-1.01;100.00
43436;BME280;36399;51.444;-2.018;2022-12-18T00:33:41;101131.16;;;-0.99;100.00
43436;BME280;36399;51.444;-2.018;2022-12-18T00:36:09;101128.88;;;-0.94;100.00
43436;BME280;36399;51.444;-2.018;2022-12-18T00:38:35;101128.00;;;-0.95;100.00
43436;BME280;36399;51.444;-2.018;2022-12-18T00:41:01;101125.47;;;-0.82;100.00
43436;BME280;36399;51.444;-2.018;2022-12-18T00:43:27;101125.81;;;-0.64;100.00
43436;BME280;36399;51.444;-2.018;2022-12-18T00:45:52;101121.97;;;-0.57;100.00
43436;BME280;36399;51.444;-2.018;2022-12-18T00:48:18;101118.75;;;-0.67;100.00
43436;BME280;36399;51.444;-2.018;2022-12-18T00:50:44;101110.53;;;-0.61;100.00
43436;BME280;36399;51.444;-2.018;2022-12-18T00:53:10;101106.25;;;-0.74;100.00
43436;BME280;36399;51.444;-2.018;2022-12-18T00:55:39;101107.94;;;-0.74;100.00
43436;BME280;36399;51.444;-2.018;2022-12-18T00:58:05;101115.97;;;-0.70;100.00
43436;BME280;36399;51.444;-2.018;2022-12-18T01:00:31;101110.81;;;-0.70;100.00
43436;BME280;36399;51.444;-2.018;2022-12-18T01:02:57;101103.28;;;-0.67;100.00
43436;BME280;36399;51.444;-2.018;2022-12-18T01:05:23;101102.91;;;-0.59;100.00
43436;BME280;36399;51.444;-2.018;2022-12-18T01:07:49;101108.06;;;-0.59;100.00
43436;BME280;36399;51.444;-2.018;2022-12-18T01:10:14;101109.22;;;-0.68;100.00
43436;BME280;36399;51.444;-2.018;2022-12-18T01:12:40;101111.06;;;-0.53;100.00
43436;BME280;36399;51.444;-2.018;2022-12-18T01:15:06;101115.56;;;-0.51;100.00
43436;BME280;36399;51.444;-2.018;2022-12-18T01:17:33;101111.06;;;-0.53;100.00
43436;BME280;36399;51.444;-2.018;2022-12-18T01:19:59;101117.97;;;-0.66;100.00
43436;BME280;36399;51.444;-2.018;2022-12-18T01:22:24;101112.59;;;-0.69;100.00
43436;BME280;36399;51.444;-2.018;2022-12-18T01:24:50;101114.19;;;-0.71;100.00
43436;BME280;36399;51.444;-2.018;2022-12-18T01:27:16;101113.09;;;-0.74;100.00
43436;BME280;36399;51.444;-2.018;2022-12-18T01:29:41;101114.94;;;-0.85;100.00
43436;BME280;36399;51.444;-2.018;2022-12-18T01:32:08;101119.03;;;-0.75;100.00
43436;BME280;36399;51.444;-2.018;2022-12-18T01:34:37;101120.91;;;-0.73;100.00
43436;BME280;36399;51.444;-2.018;2022-12-18T01:37:03;101121.91;;;-0.71;100.00
43436;BME280;36399;51.444;-2.018;2022-12-18T01:39:29;101115.75;;;-0.73;100.00
43436;BME280;36399;51.444;-2.018;2022-12-18T01:41:55;101119.69;;;-0.53;100.00
43436;BME280;36399;51.444;-2.018;2022-12-18T01:47:15;101139.69;;;-0.37;100.00
43436;BME280;36399;51.444;-2.018;2022-12-18T01:49:44;101140.97;;;-0.44;100.00
43436;BME280;36399;51.444;-2.018;2022-12-18T01:52:10;101129.66;;;-0.33;100.00
43436;BME280;36399;51.444;-2.018;2022-12-18T01:54:35;101130.56;;;-0.32;100.00
43436;BME280;36399;51.444;-2.018;2022-12-18T01:57:01;101133.25;;;-0.30;100.00
43436;BME280;36399;51.444;-2.018;2022-12-18T01:59:27;101129.66;;;-0.33;100.00
43436;BME280;36399;51.444;-2.018;2022-12-18T02:01:53;101124.59;;;-0.44;100.00
43436;BME280;36399;51.444;-2.018;2022-12-18T02:06:44;101130.00;;;-0.53;100.00
43436;BME280;36399;51.444;-2.018;2022-12-18T02:09:28;101128.69;;;-0.59;100.00
43436;BME280;36399;51.444;-2.018;2022-12-18T02:21:48;101125.69;;;-0.66;100.00
43436;BME280;36399;51.444;-2.018;2022-12-18T02:26:48;101112.81;;;-0.66;100.00
43436;BME280;36399;51.444;-2.018;2022-12-18T02:29:16;101109.09;;;-0.82;100.00
43436;BME280;36399;51.444;-2.018;2022-12-18T02:31:45;101113.63;;;-0.91;100.00
43436;BME280;36399;51.444;-2.018;2022-12-18T02:34:13;101108.63;;;-0.77;100.00
43436;BME280;36399;51.444;-2.018;2022-12-18T02:36:40;101108.25;;;-0.70;100.00
43436;BME280;36399;51.444;-2.018;2022-12-18T02:39:07;101110.22;;;-0.66;100.00
43436;BME280;36399;51.444;-2.018;2022-12-18T02:41:34;101109.03;;;-0.71;100.00
43436;BME280;36399;51.444;-2.018;2022-12-18T02:44:06;101120.75;;;-0.63;100.00
43436;BME280;36399;51.444;-2.018;2022-12-18T02:46:33;101110.22;;;-0.66;100.00
43436;BME280;36399;51.444;-2.018;2022-12-18T02:51:53;101120.53;;;-0.66;100.00
43436;BME280;36399;51.444;-2.018;2022-12-18T02:54:42;101115.50;;;-0.64;100.00
43436;BME280;36399;51.444;-2.018;2022-12-18T03:02:21;101105.75;;;-0.30;100.00
43436;BME280;36399;51.444;-2.018;2022-12-18T03:07:26;101102.41;;;-0.16;100.00
43436;BME280;36399;51.444;-2.018;2022-12-18T03:09:53;101086.72;;;-0.19;100.00
43436;BME280;36399;51.444;-2.018;2022-12-18T03:12:24;101095.44;;;-0.17;100.00
43436;BME280;36399;51.444;-2.018;2022-12-18T03:15:14;101092.66;;;-0.07;100.00
43436;BME280;36399;51.444;-2.018;2022-12-18T03:17:43;101083.34;;;-0.18;100.00
43436;BME280;36399;51.444;-2.018;2022-12-18T03:20:14;101076.69;;;-0.01;100.00
43436;BME280;36399;51.444;-2.018;2022-12-18T03:22:42;101068.84;;;-0.03;100.00
43436;BME280;36399;51.444;-2.018;2022-12-18T03:25:10;101069.63;;;-0.04;100.00
43436;BME280;36399;51.444;-2.018;2022-12-18T03:27:39;101063.13;;;0.02;100.00
43436;BME280;36399;51.444;-2.018;2022-12-18T03:30:08;101072.41;;;-0.01;100.00
43436;BME280;36399;51.444;-2.018;2022-12-18T03:32:38;101066.97;;;0.08;100.00
43436;BME280;36399;51.444;-2.018;2022-12-18T03:35:06;101065.78;;;0.16;100.00
43436;BME280;36399;51.444;-2.018;2022-12-18T03:37:33;101052.06;;;0.17;100.00
43436;BME280;36399;51.444;-2.018;2022-12-18T03:39:59;101038.09;;;0.14;100.00
43436;BME280;36399;51.444;-2.018;2022-12-18T03:42:26;101042.06;;;0.09;100.00
43436;BME280;36399;51.444;-2.018;2022-12-18T03:44:58;101034.72;;;0.15;100.00
43436;BME280;36399;51.444;-2.018;2022-12-18T03:47:30;101028.84;;;0.17;100.00
43436;BME280;36399;51.444;-2.018;2022-12-18T03:52:26;101024.53;;;0.31;100.00
43436;BME280;36399;51.444;-2.018;2022-12-18T03:54:55;101010.63;;;0.29;100.00
43436;BME280;36399;51.444;-2.018;2022-12-18T03:57:24;101011.38;;;0.41;100.00
43436;BME280;36399;51.444;-2.018;2022-12-18T03:59:53;100998.75;;;0.59;100.00
43436;BME280;36399;51.444;-2.018;2022-12-18T04:02:20;100985.31;;;0.51;100.00
43436;BME280;36399;51.444;-2.018;2022-12-18T04:04:48;100983.50;;;0.63;100.00
43436;BME280;36399;51.444;-2.018;2022-12-18T04:07:16;100975.06;;;0.66;100.00
43436;BME280;36399;51.444;-2.018;2022-12-18T04:09:43;100971.41;;;0.62;100.00
43436;BME280;36399;51.444;-2.018;2022-12-18T04:12:09;100972.38;;;0.65;100.00
43436;BME280;36399;51.444;-2.018;2022-12-18T04:14:35;100963.13;;;0.68;100.00
43436;BME280;36399;51.444;-2.018;2022-12-18T04:17:01;100951.28;;;0.72;100.00
43436;BME280;36399;51.444;-2.018;2022-12-18T04:19:27;100938.34;;;0.72;100.00
43436;BME280;36399;51.444;-2.018;2022-12-18T04:21:53;100928.81;;;0.71;100.00
43436;BME280;36399;51.444;-2.018;2022-12-18T04:24:19;100921.06;;;0.71;100.00
43436;BME280;36399;51.444;-2.018;2022-12-18T04:26:45;100924.00;;;0.62;100.00
43436;BME280;36399;51.444;-2.018;2022-12-18T04:29:10;100912.25;;;0.67;100.00
43436;BME280;36399;51.444;-2.018;2022-12-18T04:31:36;100906.72;;;0.61;100.00
43436;BME280;36399;51.444;-2.018;2022-12-18T04:34:02;100897.28;;;0.61;100.00
43436;BME280;36399;51.444;-2.018;2022-12-18T04:36:28;100899.25;;;0.66;100.00
43436;BME280;36399;51.444;-2.018;2022-12-18T04:38:53;100896.91;;;0.55;100.00
43436;BME280;36399;51.444;-2.018;2022-12-18T04:41:19;100887.31;;;0.68;100.00
43436;BME280;36399;51.444;-2.018;2022-12-18T04:43:45;100887.13;;;0.65;100.00
43436;BME280;36399;51.444;-2.018;2022-12-18T04:46:11;100887.47;;;0.71;100.00
43436;BME280;36399;51.444;-2.018;2022-12-18T04:48:37;100883.72;;;0.80;100.00
43436;BME280;36399;51.444;-2.018;2022-12-18T04:51:03;100880.44;;;0.83;100.00
43436;BME280;36399;51.444;-2.018;2022-12-18T04:53:29;100879.28;;;0.78;100.00
43436;BME280;36399;51.444;-2.018;2022-12-18T04:56:04;100863.50;;;0.88;100.00
43436;BME280;36399;51.444;-2.018;2022-12-18T04:58:30;100853.16;;;0.88;100.00
43436;BME280;36399;51.444;-2.018;2022-12-18T05:00:56;100845.31;;;0.86;100.00
43436;BME280;36399;51.444;-2.018;2022-12-18T05:03:22;100845.41;;;0.88;100.00
43436;BME280;36399;51.444;-2.018;2022-12-18T05:05:51;100842.81;;;0.88;100.00
43436;BME280;36399;51.444;-2.018;2022-12-18T05:08:17;100841.84;;;0.86;100.00
43436;BME280;36399;51.444;-2.018;2022-12-18T05:10:42;100834.25;;;0.89;100.00
43436;BME280;36399;51.444;-2.018;2022-12-18T05:13:09;100829.72;;;0.85;100.00
43436;BME280;36399;51.444;-2.018;2022-12-18T05:15:34;100827.41;;;0.75;100.00
43436;BME280;36399;51.444;-2.018;2022-12-18T05:18:00;100818.88;;;0.76;100.00
43436;BME280;36399;51.444;-2.018;2022-12-18T05:20:27;100813.25;;;0.83;100.00
43436;BME280;36399;51.444;-2.018;2022-12-18T05:22:53;100804.16;;;0.75;100.00
43436;BME280;36399;51.444;-2.018;2022-12-18T05:25:19;100801.75;;;0.78;100.00
43436;BME280;36399;51.444;-2.018;2022-12-18T05:27:45;100798.75;;;0.70;100.00
43436;BME280;36399;51.444;-2.018;2022-12-18T05:30:11;100793.66;;;0.72;100.00
43436;BME280;36399;51.444;-2.018;2022-12-18T05:32:37;100792.84;;;0.73;100.00
43436;BME280;36399;51.444;-2.018;2022-12-18T05:35:05;100785.91;;;0.72;100.00
43436;BME280;36399;51.444;-2.018;2022-12-18T05:37:31;100782.50;;;0.73;100.00
43436;BME280;36399;51.444;-2.018;2022-12-18T05:39:57;100767.00;;;0.73;100.00
43436;BME280;36399;51.444;-2.018;2022-12-18T05:42:23;100765.22;;;0.72;100.00
43436;BME280;36399;51.444;-2.018;2022-12-18T05:44:48;100767.00;;;0.73;100.00
43436;BME280;36399;51.444;-2.018;2022-12-18T05:47:14;100757.66;;;0.75;100.00
43436;BME280;36399;51.444;-2.018;2022-12-18T05:49:40;100748.13;;;0.74;100.00
43436;BME280;36399;51.444;-2.018;2022-12-18T05:52:05;100747.94;;;0.71;100.00
43436;BME280;36399;51.444;-2.018;2022-12-18T05:54:31;100741.91;;;0.70;100.00
43436;BME280;36399;51.444;-2.018;2022-12-18T05:56:57;100726.47;;;0.72;100.00
43436;BME280;36399;51.444;-2.018;2022-12-18T05:59:23;100726.34;;;0.85;100.00
43436;BME280;36399;51.444;-2.018;2022-12-18T06:01:49;100735.97;;;0.87;100.00
43436;BME280;36399;51.444;-2.018;2022-12-18T06:04:15;100721.31;;;0.72;100.00
43436;BME280;36399;51.444;-2.018;2022-12-18T06:06:40;100731.19;;;0.79;100.00
43436;BME280;36399;51.444;-2.018;2022-12-18T06:09:06;100722.97;;;0.86;100.00
43436;BME280;36399;51.444;-2.018;2022-12-18T06:11:34;100728.47;;;0.92;100.00
43436;BME280;36399;51.444;-2.018;2022-12-18T06:14:00;100724.34;;;0.95;100.00
43436;BME280;36399;51.444;-2.018;2022-12-18T06:16:27;100717.38;;;1.09;100.00
43436;BME280;36399;51.444;-2.018;2022-12-18T06:18:53;100728.81;;;0.98;100.00
43436;BME280;36399;51.444;-2.018;2022-12-18T06:21:21;100737.91;;;1.06;100.00
43436;BME280;36399;51.444;-2.018;2022-12-18T06:23:46;100734.44;;;1.06;100.00
43436;BME280;36399;51.444;-2.018;2022-12-18T06:26:12;100731.75;;;1.04;100.00
43436;BME280;36399;51.444;-2.018;2022-12-18T06:28:38;100720.13;;;1.12;100.00
43436;BME280;36399;51.444;-2.018;2022-12-18T06:31:04;100719.50;;;1.16;100.00
43436;BME280;36399;51.444;-2.018;2022-12-18T06:33:30;100712.22;;;1.09;100.00
43436;BME280;36399;51.444;-2.018;2022-12-18T06:36:05;100708.25;;;1.16;100.00
43436;BME280;36399;51.444;-2.018;2022-12-18T06:38:33;100707.38;;;1.15;100.00
43436;BME280;36399;51.444;-2.018;2022-12-18T06:40:59;100700.59;;;1.17;100.00
43436;BME280;36399;51.444;-2.018;2022-12-18T06:43:25;100705.59;;;1.31;100.00
43436;BME280;36399;51.444;-2.018;2022-12-18T06:45:50;100709.47;;;1.22;100.00
43436;BME280;36399;51.444;-2.018;2022-12-18T06:48:18;100703.34;;;1.20;100.00
43436;BME280;36399;51.444;-2.018;2022-12-18T06:50:45;100704.94;;;1.35;100.00
43436;BME280;36399;51.444;-2.018;2022-12-18T06:53:11;100708.91;;;1.44;100.00
43436;BME280;36399;51.444;-2.018;2022-12-18T06:55:37;100715.63;;;1.41;100.00
43436;BME280;36399;51.444;-2.018;2022-12-18T06:58:02;100721.44;;;1.37;100.00
43436;BME280;36399;51.444;-2.018;2022-12-18T07:00:28;100730.09;;;1.37;100.00
43436;BME280;36399;51.444;-2.018;2022-12-18T07:02:54;100727.25;;;1.49;100.00
43436;BME280;36399;51.444;-2.018;2022-12-18T07:05:20;100714.16;;;1.46;100.00
43436;BME280;36399;51.444;-2.018;2022-12-18T07:07:45;100706.50;;;1.47;100.00
43436;BME280;36399;51.444;-2.018;2022-12-18T07:10:11;100710.44;;;1.41;100.00
43436;BME280;36399;51.444;-2.018;2022-12-18T07:12:37;100701.88;;;1.42;100.00
43436;BME280;36399;51.444;-2.018;2022-12-18T07:15:03;100719.03;;;1.40;100.00
43436;BME280;36399;51.444;-2.018;2022-12-18T07:17:28;100707.94;;;1.42;100.00
43436;BME280;36399;51.444;-2.018;2022-12-18T07:19:55;100720.47;;;1.35;100.00
43436;BME280;36399;51.444;-2.018;2022-12-18T07:22:21;100741.50;;;1.41;100.00
43436;BME280;36399;51.444;-2.018;2022-12-18T07:24:46;100727.25;;;1.33;100.00
43436;BME280;36399;51.444;-2.018;2022-12-18T07:27:12;100723.53;;;1.27;100.00
43436;BME280;36399;51.444;-2.018;2022-12-18T07:29:38;100727.09;;;1.30;100.00
43436;BME280;36399;51.444;-2.018;2022-12-18T07:32:04;100724.59;;;1.31;100.00
43436;BME280;36399;51.444;-2.018;2022-12-18T07:34:29;100732.59;;;1.36;100.00
43436;BME280;36399;51.444;-2.018;2022-12-18T07:36:55;100719.66;;;1.36;100.00
43436;BME280;36399;51.444;-2.018;2022-12-18T07:39:21;100711.81;;;1.34;100.00
43436;BME280;36399;51.444;-2.018;2022-12-18T07:41:46;100712.72;;;1.35;100.00
43436;BME280;36399;51.444;-2.018;2022-12-18T07:44:32;100718.53;;;1.31;100.00
43436;BME280;36399;51.444;-2.018;2022-12-18T07:46:58;100720.78;;;1.41;100.00
43436;BME280;36399;51.444;-2.018;2022-12-18T07:49:23;100716.75;;;1.46;100.00
43436;BME280;36399;51.444;-2.018;2022-12-18T07:51:49;100710.59;;;1.44;100.00
43436;BME280;36399;51.444;-2.018;2022-12-18T07:54:15;100726.63;;;1.37;100.00
43436;BME280;36399;51.444;-2.018;2022-12-18T07:56:41;100731.78;;;1.37;100.00
43436;BME280;36399;51.444;-2.018;2022-12-18T07:59:06;100725.16;;;1.42;100.00
43436;BME280;36399;51.444;-2.018;2022-12-18T08:01:33;100718.22;;;1.24;100.00
43436;BME280;36399;51.444;-2.018;2022-12-18T08:03:59;100721.03;;;1.29;100.00
43436;BME280;36399;51.444;-2.018;2022-12-18T08:06:24;100723.31;;;1.39;100.00
43436;BME280;36399;51.444;-2.018;2022-12-18T08:08:51;100728.31;;;1.36;100.00
43436;BME280;36399;51.444;-2.018;2022-12-18T08:11:16;100730.97;;;1.38;100.00
43436;BME280;36399;51.444;-2.018;2022-12-18T08:13:42;100731.94;;;1.40;100.00
43436;BME280;36399;51.444;-2.018;2022-12-18T08:16:08;100709.00;;;1.46;100.00
43436;BME280;36399;51.444;-2.018;2022-12-18T08:18:35;100725.00;;;1.39;100.00
43436;BME280;36399;51.444;-2.018;2022-12-18T08:21:14;100727.59;;;1.39;100.00
43436;BME280;36399;51.444;-2.018;2022-12-18T08:23:40;100726.63;;;1.37;100.00
43436;BME280;36399;51.444;-2.018;2022-12-18T08:26:06;100728.16;;;1.33;100.00
43436;BME280;36399;51.444;-2.018;2022-12-18T08:28:32;100727.19;;;1.31;100.00
43436;BME280;36399;51.444;-2.018;2022-12-18T08:30:58;100722.16;;;1.34;100.00
43436;BME280;36399;51.444;-2.018;2022-12-18T08:33:24;100748.53;;;1.43;100.00
43436;BME280;36399;51.444;-2.018;2022-12-18T08:35:50;100743.34;;;1.43;100.00
43436;BME280;36399;51.444;-2.018;2022-12-18T08:38:15;100741.09;;;1.33;100.00
43436;BME280;36399;51.444;-2.018;2022-12-18T08:40:41;100732.44;;;1.33;100.00
43436;BME280;36399;51.444;-2.018;2022-12-18T08:43:07;100737.44;;;1.30;100.00
43436;BME280;36399;51.444;-2.018;2022-12-18T08:45:53;100735.81;;;1.32;100.00
43436;BME280;36399;51.444;-2.018;2022-12-18T08:48:19;100729.34;;;1.23;100.00
43436;BME280;36399;51.444;-2.018;2022-12-18T08:50:53;100729.53;;;1.26;100.00
43436;BME280;36399;51.444;-2.018;2022-12-18T08:53:18;100734.06;;;1.31;100.00
43436;BME280;36399;51.444;-2.018;2022-12-18T08:55:44;100725.63;;;1.18;100.00
43436;BME280;36399;51.444;-2.018;2022-12-18T08:58:10;100721.28;;;1.17;100.00
43436;BME280;36399;51.444;-2.018;2022-12-18T09:00:36;100723.22;;;1.21;100.00
43436;BME280;36399;51.444;-2.018;2022-12-18T09:03:01;100724.88;;;1.05;100.00
43436;BME280;36399;51.444;-2.018;2022-12-18T09:05:27;100711.41;;;1.10;100.00
43436;BME280;36399;51.444;-2.018;2022-12-18T09:07:53;100702.75;;;1.10;100.00
43436;BME280;36399;51.444;-2.018;2022-12-18T09:10:18;100701.94;;;1.11;100.00
43436;BME280;36399;51.444;-2.018;2022-12-18T09:12:44;100691.84;;;1.15;100.00
43436;BME280;36399;51.444;-2.018;2022-12-18T09:15:10;100686.53;;;1.12;100.00
43436;BME280;36399;51.444;-2.018;2022-12-18T09:17:36;100671.34;;;1.18;100.00
43436;BME280;36399;51.444;-2.018;2022-12-18T09:20:01;100666.81;;;1.14;100.00
43436;BME280;36399;51.444;-2.018;2022-12-18T09:22:27;100681.84;;;1.21;100.00
43436;BME280;36399;51.444;-2.018;2022-12-18T09:24:53;100694.53;;;1.17;100.00
43436;BME280;36399;51.444;-2.018;2022-12-18T09:27:19;100691.28;;;1.21;100.00
43436;BME280;36399;51.444;-2.018;2022-12-18T09:29:45;100693.06;;;1.22;100.00
43436;BME280;36399;51.444;-2.018;2022-12-18T09:32:10;100689.91;;;1.27;100.00
43436;BME280;36399;51.444;-2.018;2022-12-18T09:34:36;100693.16;;;1.40;100.00
43436;BME280;36399;51.444;-2.018;2022-12-18T09:37:02;100697.44;;;1.39;100.00
43436;BME280;36399;51.444;-2.018;2022-12-18T09:39:27;100686.28;;;1.40;100.00
43436;BME280;36399;51.444;-2.018;2022-12-18T09:41:54;100684.91;;;1.47;100.00
43436;BME280;36399;51.444;-2.018;2022-12-18T09:44:38;100680.47;;;1.44;100.00
43436;BME280;36399;51.444;-2.018;2022-12-18T09:47:08;100687.72;;;1.51;100.00
43436;BME280;36399;51.444;-2.018;2022-12-18T09:49:36;100695.41;;;1.50;100.00
43436;BME280;36399;51.444;-2.018;2022-12-18T09:52:05;100691.19;;;1.52;100.00
43436;BME280;36399;51.444;-2.018;2022-12-18T09:54:43;100687.00;;;1.54;100.00
43436;BME280;36399;51.444;-2.018;2022-12-18T09:57:14;100672.13;;;1.66;100.00
43436;BME280;36399;51.444;-2.018;2022-12-18T09:59:40;100669.56;;;1.66;100.00
43436;BME280;36399;51.444;-2.018;2022-12-18T10:02:15;100693.50;;;1.62;100.00
43436;BME280;36399;51.444;-2.018;2022-12-18T10:04:41;100693.00;;;1.69;100.00
43436;BME280;36399;51.444;-2.018;2022-12-18T10:07:27;100686.13;;;1.70;100.00
43436;BME280;36399;51.444;-2.018;2022-12-18T10:12:32;100676.59;;;1.69;100.00
43436;BME280;36399;51.444;-2.018;2022-12-18T10:15:06;100670.81;;;1.74;100.00
43436;BME280;36399;51.444;-2.018;2022-12-18T10:23:15;100664.03;;;1.76;100.00
43436;BME280;36399;51.444;-2.018;2022-12-18T10:25:53;100670.03;;;1.75;100.00
43436;BME280;36399;51.444;-2.018;2022-12-18T10:28:20;100674.84;;;1.85;100.00
43436;BME280;36399;51.444;-2.018;2022-12-18T10:30:47;100665.22;;;1.83;100.00
43436;BME280;36399;51.444;-2.018;2022-12-18T10:33:20;100654.13;;;1.85;100.00
43436;BME280;36399;51.444;-2.018;2022-12-18T10:35:47;100648.38;;;1.91;100.00
43436;BME280;36399;51.444;-2.018;2022-12-18T10:40:53;100638.91;;;1.92;100.00
43436;BME280;36399;51.444;-2.018;2022-12-18T10:43:20;100634.63;;;1.92;100.00
43436;BME280;36399;51.444;-2.018;2022-12-18T10:45:57;100622.56;;;1.93;100.00
43436;BME280;36399;51.444;-2.018;2022-12-18T10:48:23;100610.44;;;1.92;100.00
43436;BME280;36399;51.444;-2.018;2022-12-18T10:50:49;100596.97;;;1.99;100.00
43436;BME280;36399;51.444;-2.018;2022-12-18T10:53:19;100591.88;;;2.00;100.00
43436;BME280;36399;51.444;-2.018;2022-12-18T10:55:45;100585.94;;;2.03;100.00
43436;BME280;36399;51.444;-2.018;2022-12-18T11:00:40;100570.41;;;2.03;100.00
43436;BME280;36399;51.444;-2.018;2022-12-18T11:03:28;100546.31;;;2.04;100.00
43436;BME280;36399;51.444;-2.018;2022-12-18T11:06:01;100557.53;;;2.04;100.00
43436;BME280;36399;51.444;-2.018;2022-12-18T11:08:27;100550.03;;;2.09;100.00
43436;BME280;36399;51.444;-2.018;2022-12-18T11:10:52;100542.34;;;2.10;100.00
43436;BME280;36399;51.444;-2.018;2022-12-18T11:13:19;100534.94;;;2.18;100.00
43436;BME280;36399;51.444;-2.018;2022-12-18T11:15:46;100529.16;;;2.24;100.00
43436;BME280;36399;51.444;-2.018;2022-12-18T11:19:12;100511.09;;;2.25;100.00
43436;BME280;36399;51.444;-2.018;2022-12-18T11:21:05;100511.97;;;2.26;100.00
43436;BME280;36399;51.444;-2.018;2022-12-18T11:23:31;100513.13;;;2.32;100.00
43436;BME280;36399;51.444;-2.018;2022-12-18T11:25:58;100506.59;;;2.40;100.00
43436;BME280;36399;51.444;-2.018;2022-12-18T11:30:50;100491.34;;;2.46;100.00
43436;BME280;36399;51.444;-2.018;2022-12-18T11:33:33;100482.47;;;2.41;100.00
43436;BME280;36399;51.444;-2.018;2022-12-18T11:36:00;100477.44;;;2.44;100.00
43436;BME280;36399;51.444;-2.018;2022-12-18T11:38:35;100475.72;;;2.45;100.00
43436;BME280;36399;51.444;-2.018;2022-12-18T11:43:48;100463.19;;;2.54;100.00
43436;BME280;36399;51.444;-2.018;2022-12-18T11:46:19;100459.91;;;2.58;100.00
43436;BME280;36399;51.444;-2.018;2022-12-18T11:48:49;100459.84;;;2.57;100.00
43436;BME280;36399;51.444;-2.018;2022-12-18T11:51:25;100449.53;;;2.58;100.00
43436;BME280;36399;51.444;-2.018;2022-12-18T11:53:53;100434.16;;;2.61;100.00
43436;BME280;36399;51.444;-2.018;2022-12-18T12:03:51;100424.13;;;2.69;100.00
43436;BME280;36399;51.444;-2.018;2022-12-18T12:14:31;100419.63;;;2.65;100.00
43436;BME280;36399;51.444;-2.018;2022-12-18T12:19:34;100411.91;;;2.66;100.00
43436;BME280;36399;51.444;-2.018;2022-12-18T12:22:22;100401.63;;;2.68;100.00
43436;BME280;36399;51.444;-2.018;2022-12-18T12:32:25;100386.25;;;2.72;100.00
43436;BME280;36399;51.444;-2.018;2022-12-18T12:34:59;100385.63;;;2.78;100.00
43436;BME280;36399;51.444;-2.018;2022-12-18T12:37:43;100381.53;;;2.83;100.00
43436;BME280;36399;51.444;-2.018;2022-12-18T12:40:16;100367.75;;;2.84;100.00
43436;BME280;36399;51.444;-2.018;2022-12-18T12:42:47;100365.53;;;2.93;100.00
43436;BME280;36399;51.444;-2.018;2022-12-18T12:45:34;100360.59;;;2.99;100.00
43436;BME280;36399;51.444;-2.018;2022-12-18T12:48:02;100364.13;;;3.01;100.00
43436;BME280;36399;51.444;-2.018;2022-12-18T12:50:30;100341.03;;;3.07;100.00
43436;BME280;36399;51.444;-2.018;2022-12-18T12:52:58;100341.31;;;3.13;100.00
43436;BME280;36399;51.444;-2.018;2022-12-18T12:55:27;100340.56;;;3.16;100.00
43436;BME280;36399;51.444;-2.018;2022-12-18T13:00:46;100327.81;;;3.22;100.00
43436;BME280;36399;51.444;-2.018;2022-12-18T13:03:19;100336.63;;;3.26;100.00
43436;BME280;36399;51.444;-2.018;2022-12-18T13:05:54;100324.53;;;3.26;100.00
43436;BME280;36399;51.444;-2.018;2022-12-18T13:08:24;100324.78;;;3.32;100.00
43436;BME280;36399;51.444;-2.018;2022-12-18T13:10:52;100319.69;;;3.35;100.00
43436;BME280;36399;51.444;-2.018;2022-12-18T13:13:49;100316.50;;;3.42;100.00
43436;BME280;36399;51.444;-2.018;2022-12-18T13:16:17;100318.47;;;3.48;100.00
43436;BME280;36399;51.444;-2.018;2022-12-18T13:18:48;100309.84;;;3.49;100.00
43436;BME280;36399;51.444;-2.018;2022-12-18T13:21:25;100305.72;;;3.54;100.00
43436;BME280;36399;51.444;-2.018;2022-12-18T13:23:52;100278.41;;;3.64;100.00
43436;BME280;36399;51.444;-2.018;2022-12-18T13:31:10;100277.44;;;3.84;100.00
43436;BME280;36399;51.444;-2.018;2022-12-18T13:33:37;100274.19;;;3.90;100.00
43436;BME280;36399;51.444;-2.018;2022-12-18T13:38:36;100270.31;;;4.02;100.00
43436;BME280;36399;51.444;-2.018;2022-12-18T13:43:32;100280.03;;;4.08;100.00
43436;BME280;36399;51.444;-2.018;2022-12-18T13:48:25;100260.25;;;4.11;100.00
43436;BME280;36399;51.444;-2.018;2022-12-18T13:53:30;100243.38;;;4.24;100.00
43436;BME280;36399;51.444;-2.018;2022-12-18T13:55:58;100229.63;;;4.27;100.00
43436;BME280;36399;51.444;-2.018;2022-12-18T13:58:23;100235.81;;;4.30;100.00
43436;BME280;36399;51.444;-2.018;2022-12-18T14:00:49;100222.13;;;4.36;100.00
43436;BME280;36399;51.444;-2.018;2022-12-18T14:03:23;100213.56;;;4.38;100.00
43436;BME280;36399;51.444;-2.018;2022-12-18T14:05:56;100209.38;;;4.43;100.00
43436;BME280;36399;51.444;-2.018;2022-12-18T14:08:28;100206.16;;;4.51;100.00
43436;BME280;36399;51.444;-2.018;2022-12-18T14:10:56;100189.00;;;4.56;100.00
43436;BME280;36399;51.444;-2.018;2022-12-18T14:13:29;100182.22;;;4.61;100.00
43436;BME280;36399;51.444;-2.018;2022-12-18T14:15:56;100188.44;;;4.66;100.00